createdAt,value
2022-08-15T00:00:27.606Z,99426.66
2022-08-15T00:03:01.146Z,99438.66
2022-08-15T00:05:36.606Z,99429.63
2022-08-15T00:08:06.548Z,99432.16
2022-08-15T00:11:00.907Z,99422.28
2022-08-15T00:13:41.338Z,99425.44
2022-08-15T00:16:10.504Z,99434.28
2022-08-15T00:18:37.768Z,99433.28
2022-08-15T00:21:09.976Z,99430.41
2022-08-15T00:23:38.004Z,99425.34
2022-08-15T00:26:24.048Z,99428.09
2022-08-15T00:28:56.675Z,99442.16
2022-08-15T00:31:41.238Z,99434.22
2022-08-15T00:34:38.109Z,99432.34
2022-08-15T00:36:57.679Z,99432.13
2022-08-15T00:39:26.674Z,99430.66
2022-08-15T00:42:02.159Z,99434.41
2022-08-15T00:45:00.817Z,99429.44
2022-08-15T00:47:39.557Z,99436.16
2022-08-15T00:50:32.715Z,99439.09
2022-08-15T00:52:57.737Z,99435.09
2022-08-15T00:55:27.646Z,99432.78
2022-08-15T00:57:59.292Z,99445.16
2022-08-15T01:00:37.627Z,99438.47
2022-08-15T01:03:22.173Z,99436.56
2022-08-15T01:05:55.534Z,99435.09
2022-08-15T01:08:36.031Z,99427.78
2022-08-15T01:11:23.490Z,99427.38
2022-08-15T01:14:03.136Z,99429.28
2022-08-15T01:16:34.933Z,99440.22
2022-08-15T01:19:17.902Z,99434.78
2022-08-15T01:21:53.883Z,99431.41
2022-08-15T01:25:10.722Z,99440.63
2022-08-15T01:27:34.541Z,99439.19
2022-08-15T01:30:02.047Z,99444.00
2022-08-15T01:32:31.191Z,99444.66
2022-08-15T01:35:01.490Z,99442.13
2022-08-15T01:37:28.019Z,99433.75
2022-08-15T01:40:54.148Z,99447.38
2022-08-15T01:43:18.687Z,99449.25
2022-08-15T01:45:46.325Z,99458.06
2022-08-15T01:48:26.386Z,99457.81
2022-08-15T01:51:01.683Z,99461.00
2022-08-15T01:53:34.866Z,99457.66
2022-08-15T01:56:35.949Z,99466.88
2022-08-15T01:59:05.778Z,99453.66
2022-08-15T02:01:54.158Z,99452.34
2022-08-15T02:04:29.350Z,99455.72
2022-08-15T02:06:58.107Z,99459.69
2022-08-15T02:09:38.728Z,99456.34
2022-08-15T02:13:02.228Z,99452.78
2022-08-15T02:15:02.056Z,99459.06
2022-08-15T02:17:32.129Z,99453.63
2022-08-15T02:19:59.102Z,99459.28
2022-08-15T02:22:28.321Z,99450.47
2022-08-15T02:24:59.734Z,99455.72
2022-08-15T02:27:28.687Z,99452.16
2022-08-15T02:29:56.335Z,99449.00
2022-08-15T02:32:30.123Z,99453.22
2022-08-15T02:35:03.049Z,99441.69
2022-08-15T02:37:36.197Z,99437.69
2022-08-15T02:40:47.051Z,99439.56
2022-08-15T02:42:54.802Z,99442.94
2022-08-15T02:45:21.363Z,99438.94
2022-08-15T02:47:49.040Z,99442.09
2022-08-15T02:50:17.889Z,99441.47
2022-08-15T02:52:53.680Z,99432.25
2022-08-15T02:55:21.757Z,99433.91
2022-08-15T02:57:59.368Z,99437.28
2022-08-15T03:00:33.450Z,99435.59
2022-08-15T03:03:07.671Z,99442.06
2022-08-15T03:05:37.141Z,99448.34
2022-08-15T03:08:05.103Z,99444.34
2022-08-15T03:10:33.045Z,99441.84
2022-08-15T03:13:15.143Z,99450.81
2022-08-15T03:15:57.813Z,99446.22
2022-08-15T03:18:31.793Z,99446.44
2022-08-15T03:21:01.798Z,99450.81
2022-08-15T03:23:41.070Z,99453.34
2022-08-15T03:26:26.253Z,99451.25
2022-08-15T03:29:01.023Z,99449.16
2022-08-15T03:31:41.693Z,99434.91
2022-08-15T03:34:15.636Z,99445.97
2022-08-15T03:36:52.361Z,99446.81
2022-08-15T03:39:20.783Z,99444.66
2022-08-15T03:41:54.777Z,99443.44
2022-08-15T03:44:25.802Z,99454.09
2022-08-15T03:46:53.481Z,99454.97
2022-08-15T03:49:20.219Z,99458.06
2022-08-15T03:52:08.552Z,99466.66
2022-08-15T03:54:38.580Z,99468.78
2022-08-15T03:57:08.105Z,99473.41
2022-08-15T03:59:40.184Z,99465.47
2022-08-15T04:02:29.906Z,99473.44
2022-08-15T04:04:59.276Z,99476.38
2022-08-15T04:07:40.835Z,99476.38
2022-08-15T04:10:39.263Z,99479.13
2022-08-15T04:13:11.468Z,99466.97
2022-08-15T04:15:42.448Z,99470.13
2022-08-15T04:18:43.953Z,99472.41
2022-08-15T04:20:59.539Z,99470.28
2022-08-15T04:23:28.359Z,99478.66
2022-08-15T04:25:59.789Z,99475.97
2022-08-15T04:28:53.602Z,99470.53
2022-08-15T04:31:22.157Z,99476.59
2022-08-15T04:34:01.091Z,99482.06
2022-08-15T04:36:30.684Z,99474.34
2022-08-15T04:38:59.700Z,99474.34
2022-08-15T04:41:36.947Z,99473.50
2022-08-15T04:44:17.435Z,99481.28
2022-08-15T04:46:45.553Z,99475.22
2022-08-15T04:49:13.081Z,99467.06
2022-08-15T04:51:40.154Z,99467.47
2022-08-15T04:54:09.609Z,99468.94
2022-08-15T04:56:50.331Z,99466.19
2022-08-15T04:59:33.691Z,99458.00
2022-08-15T05:02:55.372Z,99453.97
2022-08-15T05:04:55.332Z,99454.97
2022-08-15T05:07:27.021Z,99455.13
2022-08-15T05:10:00.590Z,99455.13
2022-08-15T05:12:33.610Z,99459.66
2022-08-15T05:15:05.640Z,99457.69
2022-08-15T05:17:55.465Z,99465.78
2022-08-15T05:20:22.441Z,99454.59
2022-08-15T05:23:06.862Z,99453.63
2022-08-15T05:25:41.948Z,99449.16
2022-08-15T05:28:29.324Z,99449.06
2022-08-15T05:31:01.302Z,99448.34
2022-08-15T05:33:55.330Z,99453.06
2022-08-15T05:36:27.643Z,99450.41
2022-08-15T05:39:03.606Z,99459.16
2022-08-15T05:41:37.724Z,99457.81
2022-08-15T05:44:38.251Z,99458.56
2022-08-15T05:47:25.435Z,99457.19
2022-08-15T05:49:56.921Z,99458.22
2022-08-15T05:53:05.434Z,99458.38
2022-08-15T05:56:21.344Z,99461.63
2022-08-15T05:58:58.159Z,99467.00
2022-08-15T06:01:32.648Z,99459.81
2022-08-15T06:04:29.795Z,99463.50
2022-08-15T06:07:00.125Z,99462.34
2022-08-15T06:09:35.103Z,99468.81
2022-08-15T06:12:38.947Z,99470.25
2022-08-15T06:15:18.308Z,99467.41
2022-08-15T06:17:56.076Z,99465.91
2022-08-15T06:20:58.989Z,99466.84
2022-08-15T06:23:53.175Z,99464.88
2022-08-15T06:26:41.072Z,99469.78
2022-08-15T06:29:27.247Z,99470.91
2022-08-15T06:32:02.869Z,99468.22
2022-08-15T06:34:56.977Z,99466.91
2022-08-15T06:37:33.357Z,99461.81
2022-08-15T06:40:28.635Z,99466.81
2022-08-15T06:42:55.529Z,99470.31
2022-08-15T06:45:31.935Z,99466.00
2022-08-15T06:48:54.820Z,99465.00
2022-08-15T06:51:06.368Z,99461.84
2022-08-15T06:53:49.321Z,99463.34
2022-08-15T06:56:34.960Z,99464.28
2022-08-15T06:59:37.543Z,99470.88
2022-08-15T07:02:50.594Z,99463.25
2022-08-15T07:05:42.459Z,99467.09
2022-08-15T07:08:30.545Z,99466.28
2022-08-15T07:11:09.269Z,99465.44
2022-08-15T07:14:20.253Z,99461.00
2022-08-15T07:17:04.740Z,99456.63
2022-08-15T07:19:38.489Z,99464.38
2022-08-15T07:22:08.737Z,99465.13
2022-08-15T07:24:37.224Z,99458.97
2022-08-15T07:27:17.685Z,99453.63
2022-08-15T07:29:56.875Z,99462.06
2022-08-15T07:32:42.287Z,99459.50
2022-08-15T07:35:14.857Z,99462.81
2022-08-15T07:37:52.328Z,99460.91
2022-08-15T07:40:40.198Z,99461.28
2022-08-15T07:46:24.554Z,99458.06
2022-08-15T07:49:16.748Z,99460.00
2022-08-15T07:51:58.840Z,99457.81
2022-08-15T07:54:50.718Z,99470.53
2022-08-15T07:57:51.084Z,99461.66
2022-08-15T08:03:01.829Z,99465.28
2022-08-15T08:05:47.687Z,99467.22
2022-08-15T08:08:44.122Z,99469.78
2022-08-15T08:11:09.576Z,99462.66
2022-08-15T08:13:53.143Z,99470.38
2022-08-15T08:16:44.009Z,99470.94
2022-08-15T08:19:24.421Z,99467.16
2022-08-15T08:22:08.277Z,99469.38
2022-08-15T08:24:59.738Z,99472.16
2022-08-15T08:27:47.298Z,99467.47
2022-08-15T08:30:53.271Z,99470.88
2022-08-15T08:37:13.679Z,99458.91
2022-08-15T08:39:46.486Z,99463.44
2022-08-15T08:42:43.668Z,99461.56
2022-08-15T08:45:34.871Z,99459.13
2022-08-15T08:48:25.596Z,99454.19
2022-08-15T08:51:15.398Z,99452.84
2022-08-15T08:54:09.147Z,99449.59
2022-08-15T08:56:41.871Z,99449.88
2022-08-15T08:59:25.483Z,99440.16
2022-08-15T09:02:03.433Z,99444.63
2022-08-15T09:04:47.449Z,99444.56
2022-08-15T09:07:25.255Z,99437.59
2022-08-15T09:09:57.492Z,99427.03
2022-08-15T09:12:54.820Z,99433.06
2022-08-15T09:15:41.196Z,99438.22
2022-08-15T09:18:27.948Z,99439.00
2022-08-15T09:20:57.996Z,99426.78
2022-08-15T09:23:33.057Z,99423.13
2022-08-15T09:26:07.537Z,99431.16
2022-08-15T09:29:00.469Z,99427.16
2022-08-15T09:31:38.086Z,99427.38
2022-08-15T09:34:47.868Z,99428.91
2022-08-15T09:37:26.995Z,99431.66
2022-08-15T09:40:58.727Z,99425.00
2022-08-15T09:43:34.659Z,99422.13
2022-08-15T09:46:50.679Z,99423.66
2022-08-15T09:49:56.931Z,99426.09
2022-08-15T09:52:47.660Z,99424.19
2022-08-15T09:55:23.877Z,99425.78
2022-08-15T09:57:53.681Z,99420.44
2022-08-15T10:00:21.294Z,99411.69
2022-08-15T10:02:54.043Z,99413.28
2022-08-15T10:05:45.155Z,99401.00
2022-08-15T10:08:28.276Z,99408.44
2022-08-15T10:11:12.031Z,99402.97
2022-08-15T10:13:47.094Z,99397.28
2022-08-15T10:16:43.104Z,99379.91
2022-08-15T10:20:01.242Z,99383.69
2022-08-15T10:22:44.931Z,99369.16
2022-08-15T10:25:29.652Z,99372.72
2022-08-15T10:28:39.002Z,99371.97
2022-08-15T10:31:17.518Z,99366.78
2022-08-15T10:33:58.028Z,99369.53
2022-08-15T10:36:41.606Z,99369.88
2022-08-15T10:39:40.921Z,99365.81
2022-08-15T10:42:28.801Z,99372.25
2022-08-15T10:45:13.955Z,99366.44
2022-08-15T10:48:16.585Z,99371.69
2022-08-15T10:51:01.836Z,99361.63
2022-08-15T10:54:02.159Z,99355.31
2022-08-15T10:57:06.245Z,99355.13
2022-08-15T10:59:24.585Z,99355.75
2022-08-15T11:01:51.665Z,99359.53
2022-08-15T11:04:50.302Z,99365.22
2022-08-15T11:07:34.562Z,99359.66
2022-08-15T11:10:20.922Z,99358.41
2022-08-15T11:12:55.778Z,99366.16
2022-08-15T11:15:26.707Z,99357.09
2022-08-15T11:18:19.860Z,99349.34
2022-08-15T11:20:53.607Z,99336.56
2022-08-15T11:23:37.494Z,99353.88
2022-08-15T11:26:18.923Z,99337.84
2022-08-15T11:28:57.096Z,99332.56
2022-08-15T11:31:24.545Z,99339.56
2022-08-15T11:34:23.801Z,99335.13
2022-08-15T11:36:52.716Z,99336.47
2022-08-15T11:39:24.356Z,99338.34
2022-08-15T11:41:59.215Z,99336.59
2022-08-15T11:44:35.688Z,99337.69
2022-08-15T11:47:04.455Z,99331.22
2022-08-15T11:49:35.302Z,99325.50
2022-08-15T11:52:40.774Z,99331.19
2022-08-15T11:55:31.661Z,99323.63
2022-08-15T11:58:00.308Z,99325.59
2022-08-15T12:00:30.303Z,99325.47
2022-08-15T12:03:04.289Z,99309.03
2022-08-15T12:06:08.166Z,99309.34
2022-08-15T12:08:34.713Z,99312.31
2022-08-15T12:11:07.582Z,99319.88
2022-08-15T12:13:35.992Z,99310.50
2022-08-15T12:16:26.710Z,99309.34
2022-08-15T12:18:51.637Z,99309.97
2022-08-15T12:21:22.642Z,99304.91
2022-08-15T12:23:57.743Z,99315.56
2022-08-15T12:26:39.339Z,99300.63
2022-08-15T12:29:15.716Z,99300.97
2022-08-15T12:31:45.438Z,99299.13
2022-08-15T12:34:26.542Z,99297.63
2022-08-15T12:37:03.546Z,99300.06
2022-08-15T12:39:33.106Z,99288.16
2022-08-15T12:42:47.825Z,99285.19
2022-08-15T12:44:49.237Z,99280.81
2022-08-15T12:47:17.340Z,99279.16
2022-08-15T12:49:48.227Z,99278.34
2022-08-15T12:52:19.000Z,99264.94
2022-08-15T12:54:54.632Z,99260.31
2022-08-15T12:57:51.377Z,99268.66
2022-08-15T13:00:36.473Z,99266.75
2022-08-15T13:03:19.047Z,99276.72
2022-08-15T13:06:30.735Z,99275.28
2022-08-15T13:08:53.852Z,99279.03
2022-08-15T13:11:21.207Z,99264.31
2022-08-15T13:13:52.854Z,99275.84
2022-08-15T13:17:09.452Z,99270.78
2022-08-15T13:19:15.993Z,99273.47
2022-08-15T13:22:06.196Z,99262.97
2022-08-15T13:24:35.369Z,99260.16
2022-08-15T13:27:02.724Z,99249.16
2022-08-15T13:29:31.123Z,99241.56
2022-08-15T13:32:01.407Z,99241.56
2022-08-15T13:34:31.088Z,99240.03
2022-08-15T13:37:12.218Z,99231.81
2022-08-15T13:39:55.221Z,99235.97
2022-08-15T13:42:36.193Z,99234.00
2022-08-15T13:45:04.371Z,99229.25
2022-08-15T13:47:47.063Z,99235.38
2022-08-15T13:50:22.053Z,99226.78
2022-08-15T13:52:52.612Z,99231.22
2022-08-15T13:55:24.210Z,99223.63
2022-08-15T13:58:06.371Z,99223.56
2022-08-15T14:00:57.365Z,99224.31
2022-08-15T14:03:32.860Z,99223.88
2022-08-15T14:06:02.706Z,99220.06
2022-08-15T14:09:13.933Z,99221.00
2022-08-15T14:11:31.537Z,99213.09
2022-08-15T14:14:00.633Z,99227.84
2022-08-15T14:16:56.648Z,99228.44
2022-08-15T14:19:26.094Z,99233.81
2022-08-15T14:22:15.782Z,99227.75
2022-08-15T14:24:59.900Z,99228.53
2022-08-15T14:27:41.895Z,99232.47
2022-08-15T14:30:16.660Z,99233.81
2022-08-15T14:32:50.980Z,99226.66
2022-08-15T14:35:24.480Z,99223.88
2022-08-15T14:40:43.281Z,99222.47
2022-08-15T14:43:17.802Z,99225.75
2022-08-15T14:46:31.249Z,99235.16
2022-08-15T14:48:48.101Z,99220.34
2022-08-15T14:52:11.831Z,99216.91
2022-08-15T14:54:40.986Z,99207.91
2022-08-15T14:57:00.031Z,99210.94
2022-08-15T14:59:31.829Z,99214.19
2022-08-15T15:02:23.619Z,99207.25
2022-08-15T15:04:53.445Z,99214.31
2022-08-15T15:07:21.290Z,99213.09
2022-08-15T15:09:53.523Z,99215.09
2022-08-15T15:12:22.567Z,99211.13
2022-08-15T15:14:50.015Z,99209.13
2022-08-15T15:17:16.637Z,99223.19
2022-08-15T15:19:54.105Z,99211.03
2022-08-15T15:22:22.288Z,99213.69
2022-08-15T15:24:52.074Z,99206.88
2022-08-15T15:27:19.516Z,99208.31
2022-08-15T15:29:50.648Z,99211.13
2022-08-15T15:32:30.167Z,99214.19
2022-08-15T15:35:01.907Z,99206.78
2022-08-15T15:37:30.190Z,99209.38
2022-08-15T15:39:57.372Z,99202.16
2022-08-15T15:42:32.063Z,99212.09
2022-08-15T15:45:02.549Z,99212.41
2022-08-15T15:47:39.138Z,99202.91
2022-08-15T15:50:26.939Z,99203.06
2022-08-15T15:53:02.201Z,99204.09
2022-08-15T15:55:30.241Z,99204.28
2022-08-15T15:58:03.467Z,99200.00
2022-08-15T16:00:47.273Z,99196.56
2022-08-15T16:03:17.579Z,99199.88
2022-08-15T16:06:02.440Z,99203.03
2022-08-15T16:08:43.163Z,99201.47
2022-08-15T16:11:42.454Z,99203.97
2022-08-15T16:14:31.169Z,99204.44
2022-08-15T16:17:03.380Z,99199.16
2022-08-15T16:19:40.507Z,99201.81
2022-08-15T16:22:19.510Z,99210.25
2022-08-15T16:25:41.734Z,99207.91
2022-08-15T16:28:23.087Z,99214.28
2022-08-15T16:31:45.219Z,99205.19
2022-08-15T16:34:27.995Z,99205.00
2022-08-15T16:37:01.727Z,99207.91
2022-08-15T16:39:46.177Z,99216.94
2022-08-15T16:42:39.783Z,99211.19
2022-08-15T16:45:15.537Z,99213.41
2022-08-15T16:48:10.526Z,99216.91
2022-08-15T16:50:56.235Z,99209.16
2022-08-15T16:53:58.088Z,99215.19
2022-08-15T16:56:50.944Z,99214.47
2022-08-15T16:59:22.889Z,99213.06
2022-08-15T17:02:02.881Z,99207.41
2022-08-15T17:05:07.943Z,99214.53
2022-08-15T17:07:56.093Z,99216.22
2022-08-15T17:11:22.951Z,99218.50
2022-08-15T17:14:48.441Z,99213.59
2022-08-15T17:17:17.421Z,99214.25
2022-08-15T17:19:59.895Z,99224.13
2022-08-15T17:22:36.194Z,99229.00
2022-08-15T17:25:18.822Z,99233.72
2022-08-15T17:28:37.029Z,99239.56
2022-08-15T17:31:01.796Z,99232.88
2022-08-15T17:33:42.918Z,99237.88
2022-08-15T17:36:17.626Z,99241.81
2022-08-15T17:39:02.911Z,99243.53
2022-08-15T17:41:41.276Z,99243.59
2022-08-15T17:44:51.163Z,99244.25
2022-08-15T17:47:12.569Z,99248.81
2022-08-15T17:49:53.002Z,99250.44
2022-08-15T17:52:28.671Z,99272.00
2022-08-15T17:55:16.065Z,99266.59
2022-08-15T17:58:09.218Z,99264.66
2022-08-15T18:00:38.359Z,99269.56
2022-08-15T18:03:09.722Z,99269.75
2022-08-15T18:05:37.547Z,99275.34
2022-08-15T18:08:26.268Z,99276.31
2022-08-15T18:10:58.676Z,99278.28
2022-08-15T18:13:29.776Z,99283.41
2022-08-15T18:16:19.297Z,99290.13
2022-08-15T18:18:46.385Z,99294.34
2022-08-15T18:21:44.575Z,99301.59
2022-08-15T18:24:50.078Z,99304.47
2022-08-15T18:27:33.175Z,99306.47
2022-08-15T18:30:20.298Z,99309.78
2022-08-15T18:32:53.642Z,99308.72
2022-08-15T18:35:33.545Z,99312.06
2022-08-15T18:38:03.384Z,99308.72
2022-08-15T18:40:55.416Z,99315.41
2022-08-15T18:43:34.283Z,99312.94
2022-08-15T18:46:12.237Z,99321.81
2022-08-15T18:48:55.796Z,99322.66
2022-08-15T18:51:23.619Z,99331.78
2022-08-15T18:53:56.595Z,99334.25
2022-08-15T18:56:30.689Z,99342.03
2022-08-15T18:58:59.474Z,99343.66
2022-08-15T19:01:36.954Z,99345.31
2022-08-15T19:04:50.121Z,99344.22
2022-08-15T19:07:13.037Z,99358.81
2022-08-15T19:09:43.039Z,99360.22
2022-08-15T19:12:29.684Z,99357.44
2022-08-15T19:15:05.772Z,99354.41
2022-08-15T19:17:39.962Z,99354.09
2022-08-15T19:20:26.073Z,99350.78
2022-08-15T19:22:57.315Z,99351.28
2022-08-15T19:25:33.217Z,99353.97
2022-08-15T19:28:39.878Z,99347.31
2022-08-15T19:31:39.393Z,99353.63
2022-08-15T19:34:16.394Z,99359.41
2022-08-15T19:37:11.877Z,99353.63
2022-08-15T19:40:06.132Z,99360.00
2022-08-15T19:43:20.548Z,99361.34
2022-08-15T19:46:35.612Z,99368.16
2022-08-15T19:49:34.229Z,99363.94
2022-08-15T19:52:10.252Z,99378.06
2022-08-15T19:55:40.270Z,99375.22
2022-08-15T19:58:48.140Z,99374.31
2022-08-15T20:01:21.962Z,99372.63
2022-08-15T20:04:03.617Z,99375.28
2022-08-15T20:06:53.188Z,99379.19
2022-08-15T20:09:39.731Z,99373.69
2022-08-15T20:12:26.436Z,99384.31
2022-08-15T20:15:09.581Z,99380.06
2022-08-15T20:17:57.390Z,99385.31
2022-08-15T20:20:35.688Z,99393.50
2022-08-15T20:23:16.176Z,99398.44
2022-08-15T20:26:06.896Z,99390.63
2022-08-15T20:28:38.395Z,99394.72
2022-08-15T20:31:25.509Z,99388.84
2022-08-15T20:34:05.291Z,99390.72
2022-08-15T20:36:37.270Z,99392.94
2022-08-15T20:39:07.653Z,99389.28
2022-08-15T20:41:51.624Z,99397.22
2022-08-15T20:44:44.161Z,99398.00
2022-08-15T20:48:42.688Z,99405.75
2022-08-15T20:50:34.881Z,99402.38
2022-08-15T20:53:07.773Z,99402.56
2022-08-15T20:55:42.540Z,99403.34
2022-08-15T20:58:34.441Z,99402.78
2022-08-15T21:01:16.841Z,99399.03
2022-08-15T21:04:02.153Z,99409.97
2022-08-15T21:06:45.336Z,99412.66
2022-08-15T21:09:53.613Z,99412.06
2022-08-15T21:12:53.081Z,99416.16
2022-08-15T21:16:03.762Z,99417.00
2022-08-15T21:18:30.476Z,99414.34
2022-08-15T21:21:16.653Z,99416.25
2022-08-15T21:23:55.467Z,99412.84
2022-08-15T21:26:40.631Z,99411.63
2022-08-15T21:29:24.770Z,99416.47
2022-08-15T21:32:32.509Z,99419.16
2022-08-15T21:35:33.155Z,99419.06
2022-08-15T21:38:00.742Z,99418.50
2022-08-15T21:40:45.222Z,99425.34
2022-08-15T21:43:44.217Z,99426.75
2022-08-15T21:46:32.549Z,99429.44
2022-08-15T21:48:59.177Z,99425.88
2022-08-15T21:51:35.752Z,99428.25
2022-08-15T21:54:25.326Z,99426.72
2022-08-15T21:57:00.721Z,99435.84
2022-08-15T22:00:21.755Z,99432.50
2022-08-15T22:03:02.916Z,99433.88
2022-08-15T22:05:34.803Z,99431.84
2022-08-15T22:08:16.787Z,99427.75
2022-08-15T22:10:50.892Z,99427.28
2022-08-15T22:13:18.778Z,99425.25
2022-08-15T22:15:47.015Z,99430.59
2022-08-15T22:18:28.239Z,99426.00
2022-08-15T22:21:02.351Z,99428.44
2022-08-15T22:23:33.301Z,99422.09
2022-08-15T22:26:35.835Z,99428.59
2022-08-15T22:29:31.955Z,99427.09
2022-08-15T22:32:11.693Z,99432.09
2022-08-15T22:34:49.790Z,99431.66
2022-08-15T22:37:16.716Z,99432.09
2022-08-15T22:39:44.057Z,99433.16
2022-08-15T22:42:15.666Z,99435.22
2022-08-15T22:44:45.115Z,99433.78
2022-08-15T22:47:12.535Z,99436.38
2022-08-15T22:49:40.952Z,99439.13
2022-08-15T22:52:19.405Z,99438.34
2022-08-15T22:54:50.168Z,99443.25
2022-08-15T22:57:58.247Z,99447.09
2022-08-15T23:00:16.466Z,99443.66
2022-08-15T23:02:45.915Z,99440.81
2022-08-15T23:05:24.611Z,99434.97
2022-08-15T23:07:57.198Z,99443.56
2022-08-15T23:10:30.201Z,99435.09
2022-08-15T23:12:59.533Z,99418.88
2022-08-15T23:15:36.013Z,99430.84
2022-08-15T23:18:13.935Z,99428.22
2022-08-15T23:20:52.120Z,99420.09
2022-08-15T23:23:36.956Z,99428.31
2022-08-15T23:26:31.860Z,99424.13
2022-08-15T23:28:58.435Z,99414.97
2022-08-15T23:31:48.839Z,99412.59
2022-08-15T23:34:21.432Z,99416.03
2022-08-15T23:37:06.877Z,99423.66
2022-08-15T23:39:49.248Z,99434.50
2022-08-15T23:42:21.655Z,99424.59
2022-08-15T23:44:55.619Z,99417.47
2022-08-15T23:47:24.229Z,99425.91
2022-08-15T23:49:52.466Z,99422.00
2022-08-15T23:52:21.023Z,99427.13
2022-08-15T23:54:48.344Z,99417.78
2022-08-15T23:57:19.202Z,99433.72
2022-08-15T23:59:56.239Z,99424.03
